NY/NJ Local METAR Reports

 HOBOKEN  -  Winter Weather Advisory Winter Weather Advisory  
 NEW YORK CITY  -  Winter Weather Advisory Winter Weather Advisory  
KNYC - NYC/Central Park, NY, USA
Distance from station: NE 4mi, 7km
Updated: 01/26/2021 8:51am
Overcast
Overcast
 Wind from varies
Wind: varies 6 mph , 9 km/h
Temperature: 34°F , 1°C
Wind Chill: 29°F , -2°C
Dew Point: 19°F , -7°C
Humidity: 56%
Barometer: 30.04 inHg , 1017.3 hPa
Clouds: Overcast
Visibility: 10 miles , 16 km
Cloud details: Overcast 6500 ft
2021/01/26 13:51 KNYC 261351Z AUTO VRB05KT 10SM OVC065 01/M07 A3004 RMK AO2 SLP165 T00111072
KEWR - Newark, NJ, USA
Distance from station: WSW 8mi, 13km
Updated: 01/26/2021 8:51am
Overcast
Overcast
 Wind from ENE
Wind: ENE 7 mph , 11 km/h
Temperature: 36°F , 2°C
Wind Chill: 30°F , -1°C
Dew Point: 18°F , -8°C
Humidity: 48%
Barometer: 30.02 inHg , 1016.6 hPa
Clouds: Overcast
Visibility: 10 miles , 16 km
Cloud details: Partly cloudy 4400 ft
Mostly cloudy 5000 ft
Overcast 8000 ft
2021/01/26 13:51 KEWR 261351Z 07006KT 10SM SCT044 BKN050 OVC080 02/M08 A3002 RMK AO2 SLP164 T00171083
 
KLGA - NYC/La Guardia, NY, USA
Distance from station: ENE 8mi, 13km
Updated: 01/26/2021 8:51am
Overcast
Overcast
 Wind from E
Wind: E 12 mph , 19 km/h
Temperature: 36°F , 2°C
Wind Chill: 28°F , -2°C
Dew Point: 18°F , -8°C
Humidity: 48%
Barometer: 30.02 inHg , 1016.6 hPa
Clouds: Overcast
Visibility: 10 miles , 16 km
Cloud details: Overcast 6500 ft
2021/01/26 13:51 KLGA 261351Z 08010KT 10SM OVC065 02/M08 A3002 RMK AO2 SLP166 T00171078
KTEB - Teterboro, NJ, USA
Distance from station: N 9mi, 14km
Updated: 01/26/2021 8:51am
Overcast
Overcast
 Wind from ENE
Wind: ENE 3 mph , 6 km/h
Temperature: 34°F , 1°C
Dew Point: 18°F , -8°C
Humidity: 51%
Barometer: 30.02 inHg , 1016.6 hPa
Clouds: Overcast
Visibility: 10 miles , 16 km
Cloud details: Overcast 6500 ft
2021/01/26 13:51 KTEB 261351Z 07003KT 10SM OVC065 01/M08 A3002 RMK AO2 SLP166 T00061083
 
KJFK - NYC/Jfk Arpt, NY, USA
Distance from station: ESE 16mi, 25km
Updated: 01/26/2021 8:51am
Mostly cloudy
Mostly cloudy
 Wind from E
Wind: E 10 mph , 17 km/h
Temperature: 34°F , 1°C
Wind Chill: 26°F , -3°C
Dew Point: 18°F , -8°C
Humidity: 51%
Barometer: 30.04 inHg , 1017.3 hPa
Clouds: Mostly cloudy
Visibility: 10 miles , 16 km
Cloud details: Mostly cloudy 7000 ft
Mostly cloudy 12000 ft
2021/01/26 13:51 KJFK 261351Z 09009KT 10SM BKN070 BKN120 01/M08 A3004 RMK AO2 SLP170 T00111083
KCDW - Caldwell, NJ, USA
Distance from station: NW 16mi, 26km
Updated: 01/26/2021 8:53am
Overcast
Overcast
 Wind from E
Wind: E 8 mph , 13 km/h
Temperature: 34°F , 1°C
Wind Chill: 27°F , -3°C
Dew Point: 16°F , -9°C
Humidity: 48%
Barometer: 30.03 inHg , 1016.9 hPa
Clouds: Overcast
Visibility: 10 miles , 16 km
Cloud details: Mostly cloudy 4700 ft
Overcast 8500 ft
2021/01/26 13:53 KCDW 261353Z 08007KT 10SM BKN047 OVC085 01/M09 A3003 RMK AO2 SLP176 T00111094
 
KMMU - Morristown Muni, NJ, USA
Distance from station: W 20mi, 33km
Updated: 01/26/2021 8:45am
Overcast
Overcast
 Wind from E
Wind: E 7 mph , 11 km/h
Temperature: 32°F , 0°C
Wind Chill: 25°F , -4°C
Dew Point: 18°F , -8°C
Humidity: 55%
Barometer: 30.02 inHg , 1016.6 hPa
Clouds: Overcast
Visibility: 10 miles , 16 km
Cloud details: Overcast 4000 ft
2021/01/26 13:45 KMMU 261345Z 08006KT 10SM OVC040 00/M08 A3002
KHPN - White Plains, NY, USA
Distance from station: NE 28mi, 46km
Updated: 01/26/2021 8:56am
Mostly cloudy
Mostly cloudy
 Wind from ENE
Wind: ENE 10 mph , 17 km/h
Temperature: 30°F , -1°C
Wind Chill: 21°F , -6°C
Dew Point: 12°F , -11°C
Humidity: 47%
Barometer: 30.00 inHg , 1015.9 hPa
Clouds: Mostly cloudy
Visibility: 10 miles , 16 km
Cloud details: Few Clouds 7500 ft
Mostly cloudy 10000 ft
2021/01/26 13:56 KHPN 261356Z 07009KT 10SM FEW075 BKN100 M01/M11 A3000 RMK AO2 SLP168 T10111111
 
KFRG - Farmingdale, NY, USA
Distance from station: E 32mi, 52km
Updated: 01/26/2021 8:53am
Overcast
Overcast
 Wind from E
Wind: E 7 mph , 11 km/h
Temperature: 34°F , 1°C
Wind Chill: 28°F , -2°C
Dew Point: 18°F , -8°C
Humidity: 51%
Barometer: 30.03 inHg , 1016.9 hPa
Clouds: Overcast
Visibility: 10 miles , 16 km
Cloud details: Overcast 7500 ft
2021/01/26 13:53 KFRG 261353Z 09006KT 10SM OVC075 01/M08 A3003 RMK AO2 SLP170 T00061083
KSMQ - Somerville, NJ, USA
Distance from station: WSW 34mi, 55km
Updated: 01/26/2021 8:53am
Overcast
Overcast
 
Temperature: 34°F , 1°C
Dew Point: 16°F , -9°C
Humidity: 48%
Barometer: 29.99 inHg , 1015.6 hPa
Clouds: Overcast
Visibility: 10 miles , 16 km
Cloud details: Mostly cloudy 3900 ft
Mostly cloudy 5000 ft
Overcast 6000 ft
2021/01/26 13:53 KSMQ 261353Z AUTO 10SM BKN039 BKN050 OVC060 01/M09 A2999 RMK AO2 SLP158 T00111089
 
KBLM - Belmar/Farmdale, NJ, USA
Distance from station: S 40mi, 64km
Updated: 01/26/2021 8:56am
Overcast
Overcast
 Wind from E
Wind: E 12 mph , 19 km/h
Temperature: 36°F , 2°C
Wind Chill: 28°F , -2°C
Dew Point: 27°F , -3°C
Humidity: 70%
Barometer: 30.01 inHg , 1016.3 hPa
Clouds: Overcast
Visibility: 10 miles , 16 km
Cloud details: Overcast 3800 ft
2021/01/26 13:56 KBLM 261356Z AUTO 08010KT 10SM OVC038 02/M03 A3001 RMK AO2 SLP166 T00221028 FZRANO
K12N - Andover, NJ, USA
Distance from station: WNW 41mi, 67km
Updated: 01/26/2021 8:54am

 Wind from varies
Wind: varies 5 mph , 7 km/h
Temperature: 30°F , -1°C
Wind Chill: 25°F , -4°C
Dew Point: 16°F , -9°C
Humidity: 55%
Barometer: 29.99 inHg , 1015.6 hPa
2021/01/26 13:54 K12N 261354Z AUTO VRB04KT M01/M09 A2999 RMK AO1 SLP168 T10111089
 
KFWN - Sussex, NJ, USA
Distance from station: NW 45mi, 72km
Updated: 01/26/2021 8:53am
Overcast
Overcast
 Wind from NNE
Wind: NNE 7 mph , 11 km/h
Temperature: 28°F , -2°C
Wind Chill: 21°F , -6°C
Dew Point: 16°F , -9°C
Humidity: 59%
Barometer: 30.00 inHg , 1015.9 hPa
Clouds: Overcast
Visibility: 10 miles , 16 km
Cloud details: Partly cloudy 4300 ft
Overcast 5500 ft
2021/01/26 13:53 KFWN 261353Z AUTO 03006KT 10SM SCT043 OVC055 M02/M09 A3000 RMK AO2 SLP161 T10171089
KISP - Islip, NY, USA
Distance from station: E 49mi, 79km
Updated: 01/26/2021 8:56am
Mostly cloudy
Mostly cloudy
 Wind from ENE
Wind: ENE 9 mph , 15 km/h
Temperature: 32°F , 0°C
Wind Chill: 24°F , -4°C
Dew Point: 18°F , -8°C
Humidity: 55%
Barometer: 30.03 inHg , 1016.9 hPa
Clouds: Mostly cloudy
Visibility: 10 miles , 16 km
Cloud details: Mostly cloudy 8500 ft
2021/01/26 13:56 KISP 261356Z 06008KT 10SM BKN085 00/M08 A3003 RMK AO2 SLP169 T00001083